createdAt,value
2022-09-04T00:01:21.987Z,100558.22
2022-09-04T00:03:57.560Z,100560.69
2022-09-04T00:06:30.606Z,100562.84
2022-09-04T00:09:12.917Z,100557.47
2022-09-04T00:11:48.308Z,100555.97
2022-09-04T00:14:19.882Z,100559.66
2022-09-04T00:16:52.322Z,100555.03
2022-09-04T00:19:27.720Z,100554.06
2022-09-04T00:21:58.734Z,100551.16
2022-09-04T00:24:28.439Z,100554.56
2022-09-04T00:26:59.731Z,100554.41
2022-09-04T00:29:37.300Z,100564.38
2022-09-04T00:32:12.224Z,100563.53
2022-09-04T00:34:49.826Z,100566.34
2022-09-04T00:37:22.556Z,100569.66
2022-09-04T00:39:58.850Z,100567.94
2022-09-04T00:42:38.470Z,100570.84
2022-09-04T00:45:18.431Z,100576.72
2022-09-04T00:48:07.483Z,100581.66
2022-09-04T00:50:43.753Z,100584.00
2022-09-04T00:53:26.227Z,100587.50
2022-09-04T00:56:10.970Z,100590.44
2022-09-04T00:58:57.790Z,100579.28
2022-09-04T01:01:28.322Z,100598.88
2022-09-04T01:04:11.319Z,100599.72
2022-09-04T01:06:43.654Z,100603.69
2022-09-04T01:09:33.441Z,100596.06
2022-09-04T01:12:08.563Z,100609.06
2022-09-04T01:14:41.431Z,100605.88
2022-09-04T01:17:15.934Z,100603.94
2022-09-04T01:19:51.866Z,100609.28
2022-09-04T01:22:46.881Z,100608.47
2022-09-04T01:25:28.043Z,100613.38
2022-09-04T01:28:00.843Z,100612.47
2022-09-04T01:30:32.830Z,100603.56
2022-09-04T01:33:05.620Z,100611.28
2022-09-04T01:35:36.311Z,100604.59
2022-09-04T01:38:10.803Z,100600.16
2022-09-04T01:40:43.246Z,100593.75
2022-09-04T01:43:13.645Z,100606.25
2022-09-04T01:45:50.276Z,100611.84
2022-09-04T01:48:19.087Z,100594.66
2022-09-04T01:50:50.501Z,100601.00
2022-09-04T01:53:22.042Z,100610.31
2022-09-04T01:55:52.819Z,100613.72
2022-09-04T01:58:30.224Z,100608.69
2022-09-04T02:01:02.282Z,100605.19
2022-09-04T02:03:39.578Z,100597.69
2022-09-04T02:06:17.857Z,100599.34
2022-09-04T02:09:04.291Z,100602.38
2022-09-04T02:11:33.066Z,100600.13
2022-09-04T02:14:14.334Z,100603.53
2022-09-04T02:16:59.155Z,100608.22
2022-09-04T02:19:36.960Z,100602.16
2022-09-04T02:22:12.305Z,100608.44
2022-09-04T02:24:46.906Z,100608.13
2022-09-04T02:27:20.650Z,100607.63
2022-09-04T02:29:58.410Z,100616.47
2022-09-04T02:32:32.904Z,100613.16
2022-09-04T02:35:05.162Z,100610.34
2022-09-04T02:37:36.561Z,100609.53
2022-09-04T02:40:11.925Z,100612.00
2022-09-04T02:42:46.811Z,100611.88
2022-09-04T02:45:20.980Z,100608.66
2022-09-04T02:47:53.486Z,100617.31
2022-09-04T02:50:33.728Z,100621.44
2022-09-04T02:53:13.913Z,100620.53
2022-09-04T02:55:58.556Z,100623.00
2022-09-04T02:58:33.781Z,100625.09
2022-09-04T03:01:12.393Z,100631.38
2022-09-04T03:03:44.091Z,100629.19
2022-09-04T03:06:14.513Z,100626.53
2022-09-04T03:08:46.957Z,100632.09
2022-09-04T03:11:18.772Z,100634.13
2022-09-04T03:13:51.645Z,100642.81
2022-09-04T03:16:26.024Z,100643.06
2022-09-04T03:19:08.446Z,100646.34
2022-09-04T03:21:42.044Z,100645.13
2022-09-04T03:24:14.155Z,100653.44
2022-09-04T03:26:43.524Z,100650.56
2022-09-04T03:29:22.038Z,100650.47
2022-09-04T03:31:59.903Z,100643.22
2022-09-04T03:34:37.526Z,100643.63
2022-09-04T03:37:29.681Z,100635.84
2022-09-04T03:40:14.211Z,100643.06
2022-09-04T03:42:54.096Z,100649.75
2022-09-04T03:45:27.837Z,100654.69
2022-09-04T03:48:15.566Z,100655.97
2022-09-04T03:50:49.776Z,100651.53
2022-09-04T03:53:23.882Z,100654.53
2022-09-04T03:56:09.788Z,100652.97
2022-09-04T03:58:43.592Z,100654.00
2022-09-04T04:01:14.022Z,100661.25
2022-09-04T04:04:02.731Z,100659.38
2022-09-04T04:06:38.287Z,100667.00
2022-09-04T04:09:21.572Z,100659.75
2022-09-04T04:12:03.548Z,100663.19
2022-09-04T04:14:46.255Z,100664.91
2022-09-04T04:17:25.184Z,100659.81
2022-09-04T04:20:05.966Z,100673.44
2022-09-04T04:22:47.289Z,100675.47
2022-09-04T04:25:25.239Z,100676.78
2022-09-04T04:28:09.352Z,100682.25
2022-09-04T04:30:45.856Z,100675.22
2022-09-04T04:33:24.367Z,100673.53
2022-09-04T04:36:01.467Z,100678.00
2022-09-04T04:38:44.704Z,100686.81
2022-09-04T04:41:24.994Z,100688.50
2022-09-04T04:44:06.979Z,100686.06
2022-09-04T04:46:46.319Z,100694.72
2022-09-04T04:49:39.710Z,100687.84
2022-09-04T04:52:22.276Z,100688.31
2022-09-04T04:54:59.223Z,100690.69
2022-09-04T04:57:32.855Z,100707.03
2022-09-04T05:00:08.459Z,100699.66
2022-09-04T05:02:39.182Z,100701.22
2022-09-04T05:05:14.011Z,100700.53
2022-09-04T05:07:50.977Z,100701.91
2022-09-04T05:10:20.989Z,100695.72
2022-09-04T05:12:59.834Z,100704.00
2022-09-04T05:15:34.410Z,100714.91
2022-09-04T05:18:09.276Z,100717.25
2022-09-04T05:20:42.902Z,100711.75
2022-09-04T05:23:18.967Z,100714.44
2022-09-04T05:25:52.068Z,100723.38
2022-09-04T05:28:29.485Z,100732.22
2022-09-04T05:31:06.223Z,100735.94
2022-09-04T05:33:39.949Z,100737.75
2022-09-04T05:36:14.381Z,100730.88
2022-09-04T05:38:51.640Z,100731.97
2022-09-04T05:41:32.752Z,100739.22
2022-09-04T05:44:08.803Z,100745.53
2022-09-04T05:46:46.482Z,100753.53
2022-09-04T05:49:28.462Z,100754.06
2022-09-04T05:52:20.253Z,100754.53
2022-09-04T05:55:02.302Z,100762.34
2022-09-04T05:57:40.223Z,100770.69
2022-09-04T06:00:10.418Z,100776.34
2022-09-04T06:02:50.693Z,100773.84
2022-09-04T06:05:28.786Z,100782.56
2022-09-04T06:08:02.664Z,100785.06
2022-09-04T06:10:45.694Z,100790.66
2022-09-04T06:13:30.009Z,100789.53
2022-09-04T06:16:11.157Z,100783.56
2022-09-04T06:18:50.578Z,100789.41
2022-09-04T06:21:50.410Z,100790.94
2022-09-04T06:24:37.888Z,100796.50
2022-09-04T06:27:35.362Z,100805.72
2022-09-04T06:30:07.891Z,100788.44
2022-09-04T06:33:08.141Z,100802.94
2022-09-04T06:35:47.071Z,100801.22
2022-09-04T06:38:34.545Z,100798.63
2022-09-04T06:41:13.231Z,100800.38
2022-09-04T06:43:48.594Z,100811.22
2022-09-04T06:46:22.743Z,100815.47
2022-09-04T06:49:00.752Z,100815.81
2022-09-04T06:51:39.992Z,100814.63
2022-09-04T06:54:17.271Z,100815.13
2022-09-04T06:56:58.241Z,100813.59
2022-09-04T06:59:36.469Z,100812.09
2022-09-04T07:02:17.548Z,100808.66
2022-09-04T07:04:52.767Z,100807.59
2022-09-04T07:07:23.896Z,100804.44
2022-09-04T07:10:01.227Z,100804.69
2022-09-04T07:12:55.753Z,100808.78
2022-09-04T07:15:47.539Z,100797.16
2022-09-04T07:18:35.304Z,100805.25
2022-09-04T07:21:07.994Z,100810.00
2022-09-04T07:23:45.227Z,100810.22
2022-09-04T07:26:20.879Z,100817.91
2022-09-04T07:29:07.627Z,100826.19
2022-09-04T07:31:40.876Z,100825.06
2022-09-04T07:34:15.162Z,100822.63
2022-09-04T07:36:49.700Z,100828.09
2022-09-04T07:39:22.062Z,100834.75
2022-09-04T07:41:54.492Z,100831.50
2022-09-04T07:44:29.226Z,100834.06
2022-09-04T07:47:13.618Z,100834.19
2022-09-04T07:49:50.975Z,100845.28
2022-09-04T07:52:28.511Z,100830.69
2022-09-04T07:55:10.448Z,100837.56
2022-09-04T07:57:56.126Z,100844.88
2022-09-04T08:00:24.204Z,100842.22
2022-09-04T08:03:20.955Z,100842.78
2022-09-04T08:05:53.395Z,100851.59
2022-09-04T08:08:39.307Z,100858.94
2022-09-04T08:11:28.307Z,100852.72
2022-09-04T08:14:35.100Z,100862.03
2022-09-04T08:17:42.981Z,100867.75
2022-09-04T08:20:21.788Z,100864.00
2022-09-04T08:22:59.693Z,100870.28
2022-09-04T08:25:30.688Z,100882.28
2022-09-04T08:28:17.683Z,100876.53
2022-09-04T08:30:54.165Z,100883.38
2022-09-04T08:33:48.875Z,100883.09
2022-09-04T08:36:25.436Z,100880.06
2022-09-04T08:39:08.783Z,100874.59
2022-09-04T08:42:13.419Z,100877.31
2022-09-04T08:45:23.720Z,100883.81
2022-09-04T08:48:38.433Z,100883.78
2022-09-04T08:51:40.442Z,100885.72
2022-09-04T08:54:36.050Z,100888.88
2022-09-04T08:57:22.275Z,100891.53
2022-09-04T09:00:06.294Z,100891.31
2022-09-04T09:02:53.547Z,100887.66
2022-09-04T09:05:38.947Z,100888.47
2022-09-04T09:08:15.515Z,100889.16
2022-09-04T09:11:02.238Z,100885.44
2022-09-04T09:14:09.008Z,100893.88
2022-09-04T09:16:45.252Z,100897.75
2022-09-04T09:19:22.697Z,100893.38
2022-09-04T09:22:11.314Z,100895.00
2022-09-04T09:25:20.812Z,100891.72
2022-09-04T09:28:18.627Z,100893.34
2022-09-04T09:31:04.616Z,100887.03
2022-09-04T09:34:15.333Z,100888.47
2022-09-04T09:37:02.855Z,100895.66
2022-09-04T09:39:54.793Z,100889.34
2022-09-04T09:42:38.723Z,100887.00
2022-09-04T09:45:28.524Z,100891.47
2022-09-04T09:48:17.014Z,100889.25
2022-09-04T09:51:18.573Z,100884.47
2022-09-04T09:54:14.390Z,100889.25
2022-09-04T09:57:02.817Z,100892.41
2022-09-04T09:59:53.825Z,100887.59
2022-09-04T10:03:04.706Z,100894.56
2022-09-04T10:06:07.838Z,100883.91
2022-09-04T10:09:09.396Z,100894.69
2022-09-04T10:12:06.877Z,100893.78
2022-09-04T10:14:50.642Z,100901.47
2022-09-04T10:17:48.528Z,100888.41
2022-09-04T10:20:46.381Z,100900.34
2022-09-04T10:23:41.395Z,100892.41
2022-09-04T10:26:50.139Z,100890.25
2022-09-04T10:29:35.811Z,100889.38
2022-09-04T10:32:27.507Z,100894.63
2022-09-04T10:35:09.487Z,100879.50
2022-09-04T10:37:54.167Z,100893.13
2022-09-04T10:40:39.772Z,100883.09
2022-09-04T10:43:26.487Z,100882.25
2022-09-04T10:46:04.125Z,100883.91
2022-09-04T10:48:57.211Z,100888.03
2022-09-04T10:51:36.930Z,100885.66
2022-09-04T10:54:44.977Z,100880.47
2022-09-04T10:57:30.636Z,100880.63
2022-09-04T11:00:08.599Z,100880.84
2022-09-04T11:03:15.203Z,100880.63
2022-09-04T11:06:15.756Z,100880.78
2022-09-04T11:09:07.197Z,100880.19
2022-09-04T11:11:50.467Z,100878.28
2022-09-04T11:14:43.606Z,100884.06
2022-09-04T11:17:38.877Z,100874.50
2022-09-04T11:20:39.759Z,100878.28
2022-09-04T11:23:49.701Z,100883.63
2022-09-04T11:26:57.426Z,100882.91
2022-09-04T11:29:50.080Z,100881.75
2022-09-04T11:32:39.162Z,100889.06
2022-09-04T11:35:36.389Z,100883.72
2022-09-04T11:38:18.404Z,100884.28
2022-09-04T11:41:22.327Z,100879.53
2022-09-04T11:44:25.172Z,100888.31
2022-09-04T11:47:17.845Z,100884.66
2022-09-04T11:50:00.065Z,100877.81
2022-09-04T11:52:40.458Z,100882.16
2022-09-04T11:55:23.859Z,100883.72
2022-09-04T11:58:08.835Z,100883.44
2022-09-04T12:00:44.115Z,100885.75
2022-09-04T12:03:36.285Z,100885.69
2022-09-04T12:06:22.311Z,100889.47
2022-09-04T12:09:18.441Z,100894.38
2022-09-04T12:12:26.274Z,100882.59
2022-09-04T12:15:22.207Z,100891.41
2022-09-04T12:18:26.292Z,100878.75
2022-09-04T12:21:34.839Z,100885.47
2022-09-04T12:24:20.165Z,100881.53
2022-09-04T12:27:15.507Z,100875.88
2022-09-04T12:30:05.415Z,100886.69
2022-09-04T12:32:55.148Z,100891.91
2022-09-04T12:35:44.614Z,100880.13
2022-09-04T12:38:25.787Z,100892.09
2022-09-04T12:41:00.072Z,100881.91
2022-09-04T12:43:41.842Z,100890.72
2022-09-04T12:46:25.430Z,100894.44
2022-09-04T12:49:10.311Z,100889.34
2022-09-04T12:51:44.605Z,100884.38
2022-09-04T12:54:25.017Z,100895.56
2022-09-04T12:57:09.011Z,100890.53
2022-09-04T12:59:52.489Z,100895.94
2022-09-04T13:02:32.555Z,100900.13
2022-09-04T13:05:12.613Z,100890.50
2022-09-04T13:07:48.024Z,100901.22
2022-09-04T13:10:25.121Z,100904.44
2022-09-04T13:13:05.882Z,100899.56
2022-09-04T13:15:43.746Z,100893.84
2022-09-04T13:18:34.721Z,100900.38
2022-09-04T13:21:09.907Z,100901.28
2022-09-04T13:24:06.595Z,100918.13
2022-09-04T13:26:46.105Z,100918.00
2022-09-04T13:29:22.679Z,100906.13
2022-09-04T13:32:00.275Z,100914.75
2022-09-04T13:34:37.371Z,100908.88
2022-09-04T13:37:10.008Z,100899.72
2022-09-04T13:39:57.604Z,100896.50
2022-09-04T13:43:19.342Z,100912.06
2022-09-04T13:45:51.103Z,100908.41
2022-09-04T13:48:32.668Z,100905.38
2022-09-04T13:51:13.280Z,100903.44
2022-09-04T13:53:55.193Z,100906.47
2022-09-04T13:56:29.512Z,100907.63
2022-09-04T13:59:00.229Z,100916.81
2022-09-04T14:01:30.025Z,100912.16
2022-09-04T14:04:00.692Z,100903.22
2022-09-04T14:06:32.271Z,100909.78
2022-09-04T14:09:05.604Z,100903.59
2022-09-04T14:11:56.725Z,100903.78
2022-09-04T14:14:41.332Z,100912.47
2022-09-04T14:17:12.690Z,100909.97
2022-09-04T14:19:48.315Z,100917.22
2022-09-04T14:22:25.032Z,100916.09
2022-09-04T14:25:06.443Z,100915.97
2022-09-04T14:27:39.426Z,100901.38
2022-09-04T14:30:09.355Z,100897.81
2022-09-04T14:32:49.356Z,100893.91
2022-09-04T14:35:23.140Z,100897.22
2022-09-04T14:38:36.494Z,100896.81
2022-09-04T14:41:13.401Z,100898.00
2022-09-04T14:43:46.330Z,100898.34
2022-09-04T14:46:21.899Z,100900.56
2022-09-04T14:49:00.988Z,100902.66
2022-09-04T14:51:35.152Z,100899.78
2022-09-04T14:54:04.600Z,100903.63
2022-09-04T14:56:36.646Z,100902.84
2022-09-04T14:59:12.549Z,100906.47
2022-09-04T15:01:58.024Z,100898.34
2022-09-04T15:04:33.694Z,100900.13
2022-09-04T15:07:11.684Z,100899.47
2022-09-04T15:09:42.188Z,100899.53
2022-09-04T15:12:27.106Z,100901.41
2022-09-04T15:14:58.966Z,100902.25
2022-09-04T15:17:29.393Z,100911.22
2022-09-04T15:20:01.456Z,100906.09
2022-09-04T15:22:34.704Z,100914.97
2022-09-04T15:25:06.579Z,100907.63
2022-09-04T15:27:44.345Z,100901.66
2022-09-04T15:30:19.871Z,100909.56
2022-09-04T15:32:48.840Z,100911.69
2022-09-04T15:35:23.153Z,100906.72
2022-09-04T15:37:53.254Z,100901.25
2022-09-04T15:40:28.963Z,100895.94
2022-09-04T15:43:07.986Z,100893.31
2022-09-04T15:45:43.406Z,100908.75
2022-09-04T15:48:21.142Z,100896.19
2022-09-04T15:50:59.583Z,100897.72
2022-09-04T15:53:29.892Z,100895.66
2022-09-04T15:56:27.738Z,100906.56
2022-09-04T15:59:01.512Z,100908.50
2022-09-04T16:01:31.925Z,100914.44
2022-09-04T16:04:07.110Z,100902.59
2022-09-04T16:06:44.510Z,100901.47
2022-09-04T16:09:20.793Z,100894.25
2022-09-04T16:11:55.914Z,100896.66
2022-09-04T16:14:26.207Z,100894.22
2022-09-04T16:16:56.827Z,100889.66
2022-09-04T16:19:28.455Z,100886.81
2022-09-04T16:22:07.661Z,100890.69
2022-09-04T16:25:36.858Z,100891.00
2022-09-04T16:28:08.059Z,100899.41
2022-09-04T16:30:41.852Z,100901.06
2022-09-04T16:33:28.194Z,100901.25
2022-09-04T16:36:00.412Z,100914.88
2022-09-04T16:38:33.242Z,100891.34
2022-09-04T16:41:06.189Z,100891.53
2022-09-04T16:43:35.404Z,100885.91
2022-09-04T16:46:10.664Z,100909.41
2022-09-04T16:48:46.685Z,100897.44
2022-09-04T16:51:39.138Z,100907.19
2022-09-04T16:54:12.525Z,100890.56
2022-09-04T16:56:42.970Z,100897.16
2022-09-04T16:59:21.939Z,100896.50
2022-09-04T17:01:53.583Z,100907.09
2022-09-04T17:04:41.947Z,100900.22
2022-09-04T17:07:15.946Z,100900.31
2022-09-04T17:09:56.227Z,100904.56
2022-09-04T17:12:32.937Z,100898.78
2022-09-04T17:15:12.413Z,100912.25
2022-09-04T17:17:42.580Z,100907.28
2022-09-04T17:20:12.834Z,100908.59
2022-09-04T17:28:55.574Z,100896.94
2022-09-04T17:29:12.476Z,100920.50
2022-09-04T17:29:37.213Z,100907.44
2022-09-04T17:32:58.365Z,100904.31
2022-09-04T17:40:48.032Z,100915.28
2022-09-04T17:40:56.579Z,100901.69
2022-09-04T17:41:38.081Z,100907.66
2022-09-04T17:44:05.377Z,100915.78
2022-09-04T17:46:37.024Z,100907.28
2022-09-04T17:49:14.298Z,100910.69
2022-09-04T17:51:48.696Z,100905.03
2022-09-04T17:54:17.959Z,100915.88
2022-09-04T17:56:49.775Z,100911.22
2022-09-04T17:59:23.837Z,100917.91
2022-09-04T18:02:01.468Z,100910.38
2022-09-04T18:04:37.619Z,100921.00
2022-09-04T18:07:28.691Z,100931.19
2022-09-04T18:10:09.746Z,100915.84
2022-09-04T18:12:40.678Z,100915.59
2022-09-04T18:15:33.480Z,100927.25
2022-09-04T18:18:08.942Z,100917.19
2022-09-04T18:20:40.780Z,100924.97
2022-09-04T18:23:50.956Z,100916.31
2022-09-04T18:26:24.625Z,100941.94
2022-09-04T18:29:00.710Z,100939.34
2022-09-04T18:37:16.159Z,100933.97
2022-09-04T18:37:21.673Z,100936.16
2022-09-04T18:37:44.626Z,100924.75
2022-09-04T18:40:12.843Z,100941.09
2022-09-04T18:50:20.356Z,100943.28
2022-09-04T18:50:30.119Z,100947.91
2022-09-04T18:50:50.300Z,100945.72
2022-09-04T18:51:25.434Z,100950.91
2022-09-04T18:53:57.293Z,100945.47
2022-09-04T18:56:27.977Z,100940.00
2022-09-04T18:59:00.562Z,100953.63
2022-09-04T19:01:34.678Z,100952.53
2022-09-04T19:04:21.536Z,100955.72
2022-09-04T19:06:55.770Z,100950.66
2022-09-04T19:09:51.209Z,100963.44
2022-09-04T19:12:35.818Z,100958.53
2022-09-04T19:15:36.258Z,100968.06
2022-09-04T19:18:08.657Z,100964.50
2022-09-04T19:20:47.471Z,100973.53
2022-09-04T19:23:21.712Z,100974.88
2022-09-04T19:25:54.843Z,100971.63
2022-09-04T19:28:26.839Z,100974.88
2022-09-04T19:30:56.826Z,100973.28
2022-09-04T19:33:32.028Z,100980.84
2022-09-04T19:36:05.889Z,100981.94
2022-09-04T19:45:56.466Z,100974.59
2022-09-04T19:46:07.453Z,100980.44
2022-09-04T19:46:19.139Z,100976.19
2022-09-04T19:47:29.375Z,100978.53
2022-09-04T19:53:20.263Z,100976.16
2022-09-04T19:53:24.321Z,100981.81
2022-09-04T19:55:47.029Z,100980.22
2022-09-04T19:58:16.984Z,100987.19
2022-09-04T20:00:48.865Z,100976.66
2022-09-04T20:03:30.070Z,100990.53
2022-09-04T20:06:19.859Z,100976.16
2022-09-04T20:08:53.595Z,100989.66
2022-09-04T20:11:30.614Z,100983.34
2022-09-04T20:14:14.459Z,100980.16
2022-09-04T20:16:52.042Z,101002.19
2022-09-04T20:19:28.063Z,100995.56
2022-09-04T20:22:00.899Z,100994.44
2022-09-04T20:24:36.743Z,100981.44
2022-09-04T20:27:10.223Z,100984.63
2022-09-04T20:29:42.734Z,100983.09
2022-09-04T20:32:16.498Z,100988.63
2022-09-04T20:35:45.819Z,100990.78
2022-09-04T20:38:23.158Z,100985.63
2022-09-04T20:40:59.371Z,100990.88
2022-09-04T20:43:32.517Z,101004.59
2022-09-04T20:51:09.086Z,100982.16
2022-09-04T20:52:51.290Z,101000.28
2022-09-04T20:52:55.272Z,100989.31
2022-09-04T20:54:55.571Z,100990.81
2022-09-04T21:00:53.383Z,100995.53
2022-09-04T21:03:22.401Z,100999.22
2022-09-04T21:03:27.953Z,100998.19
2022-09-04T21:06:12.216Z,101001.06
2022-09-04T21:08:47.661Z,101006.88
2022-09-04T21:11:41.457Z,101004.22
2022-09-04T21:14:10.796Z,101003.28
2022-09-04T21:16:54.136Z,101007.81
2022-09-04T21:19:36.172Z,101005.91
2022-09-04T21:22:32.582Z,101006.25
2022-09-04T21:25:12.441Z,101013.88
2022-09-04T21:28:23.172Z,101013.63
2022-09-04T21:31:00.454Z,101012.09
2022-09-04T21:33:36.383Z,101012.63
2022-09-04T21:36:26.821Z,101021.63
2022-09-04T21:39:28.956Z,101015.19
2022-09-04T21:42:17.639Z,101018.53
2022-09-04T21:45:24.609Z,101013.59
2022-09-04T21:48:18.390Z,101020.00
2022-09-04T21:50:58.830Z,101015.63
2022-09-04T21:53:54.585Z,101021.66
2022-09-04T22:00:16.121Z,101021.56
2022-09-04T22:02:36.660Z,101018.41
2022-09-04T22:03:21.988Z,101030.38
2022-09-04T22:05:58.167Z,101026.03
2022-09-04T22:13:30.304Z,101018.06
2022-09-04T22:13:41.039Z,101028.06
2022-09-04T22:14:43.085Z,101030.34
2022-09-04T22:17:36.601Z,101029.84
2022-09-04T22:20:21.403Z,101026.38
2022-09-04T22:23:34.871Z,101027.63
2022-09-04T22:26:24.158Z,101032.38
2022-09-04T22:29:00.401Z,101027.31
2022-09-04T22:32:00.826Z,101030.56
2022-09-04T22:34:45.010Z,101029.56
2022-09-04T22:37:52.554Z,101033.88
2022-09-04T22:40:29.501Z,101032.78
2022-09-04T22:43:08.828Z,101029.38
2022-09-04T22:45:59.572Z,101032.19
2022-09-04T22:49:13.111Z,101036.94
2022-09-04T22:52:17.229Z,101030.50
2022-09-04T22:54:57.503Z,101030.84
2022-09-04T22:57:32.460Z,101033.13
2022-09-04T23:00:09.661Z,101036.56
2022-09-04T23:03:23.148Z,101034.66
2022-09-04T23:07:38.828Z,101031.22
2022-09-04T23:13:48.889Z,101033.31
2022-09-04T23:13:50.522Z,101034.22
2022-09-04T23:15:27.467Z,101039.47
2022-09-04T23:20:42.449Z,101038.25
2022-09-04T23:26:31.721Z,101028.69
2022-09-04T23:26:48.653Z,101029.94
2022-09-04T23:27:33.662Z,101027.16
2022-09-04T23:30:25.746Z,101016.25
2022-09-04T23:33:27.925Z,101017.28
2022-09-04T23:36:05.235Z,101018.56
2022-09-04T23:39:01.079Z,101028.53
2022-09-04T23:41:44.666Z,101024.84
2022-09-04T23:44:44.998Z,101027.41
2022-09-04T23:47:48.371Z,101021.47
2022-09-04T23:50:27.427Z,101021.25
2022-09-04T23:53:04.504Z,101018.44
2022-09-04T23:55:49.071Z,101016.34
2022-09-04T23:58:51.999Z,101030.22
